Osterville, MA (02655)

5:28 AM EST on December 08, 2016 (GMT -0500)
North Bay | | Change Station
Active Advisory: Special Statement

Elev 42 ft 41.64 °N, 70.41 °W | Updated 6 minutes ago

Partly Cloudy
Partly Cloudy
35.8 °F
Feels Like 36 °F
N
3.0
Wind Variable Wind from WNW

Today
High -- | Low -- °F
--% Chance of Precip.
Yesterday
High -- | Low -- °F
Precip. -- in
Pressure 29.95 in
Visibility 10.0 miles
Clouds Clear
Windchill 36 °F
Dew Point 34 °F
Humidity 93%
Rainfall 0.00 in
Snow Depth Not available.
6:56 AM 4:11 PM
First Quarter, 62% visible
METAR KHYA 080956Z AUTO 29003KT 10SM CLR 02/M01 A2995 RMK AO2 SLP141 T00221006
Pressure 29.95 in
Visibility 10.0 miles
Clouds Clear
Windchill 36 °F
Dew Point 34 °F
Humidity 93%
Rainfall 0.00 in
Snow Depth Not available.
6:56 AM 4:11 PM
First Quarter, 62% visible
METAR KHYA 080956Z AUTO 29003KT 10SM CLR 02/M01 A2995 RMK AO2 SLP141 T00221006

10-Day Weather Forecast

Almanac

Astronomy

Dec. 08, 2016 Rise Set
Actual Time
Civil Twilight
Nautical Twilight
Astronomical Twilight
Moon
Length of Visible Light
Length of Day
Tomorrow will be .
, % of the Moon is Illuminated

Today's Extremes

State Highs State Lows

Community

WunderPhotos

Upload Photos

1,956,261 photos uploaded!

WunderBlog® & News

Nearby

Air Quality

  Air Quality AQ Index Pollutant
Not available.

Snow Depth

Station Depth Elevation

Earthquake Activity

City Distance Mag. Time & Date
Minimum magnitude displayed is 2.5.

Coastal Water Temperatures

Place Temperature

Stations

Nearby Weather Stations

Station Location Temp. Windchill Dew Point Humidity Wind Precip. Elev Updated Type
                   

Watches & Warnings

Special Statement
Issued: 4:58 AM EST Dec. 8, 2016 – National Weather Service

... Patchy dense fog is likely this morning...

Light winds and some breaks in the cloud cover have allowed patchy
dense fog to form across much of southern New England. Fog is most
dense across portions of western and northern Massachusetts. Fog
should dissipate by mid-morning. Motorists should slow down and
use low beams when traveling this morning.


Rlg

458 am EST Thu Dec 8 2016

... Patchy dense fog is likely this morning...

Light winds and some breaks in the cloud cover have allowed patchy
dense fog to form across much of southern New England. Fog is most
dense across portions of western and northern Massachusetts. Fog
should dissipate by mid-morning. Motorists should slow down and
use low beams when traveling this morning.


Rlg